Time;durP1;ratioP1;P1;durP2;ratioP2;P2;SDS_P1;SDS_P2;PMS_P1;PMS_P2;Temp;Humidity;BMP_temperature;BMP_pressure;BME280_temperature;BME280_humidity;BME280_pressure;Samples;Min_cycle;Max_cycle;Signal;HPM_P1;HPM_P2
2022/03/31 00:01:31;;;;;;;20.23;13.47;;;;;;;;;;4954031;28;20194;-84
2022/03/31 00:04:38;;;;;;;18.60;13.33;;;;;;;;;;4965242;28;20218;-84
2022/03/31 00:07:57;;;;;;;19.20;14.50;;;;;;;;;;4965681;28;20634;-84
2022/03/31 00:11:02;;;;;;;19.27;13.83;;;;;;;;;;4953961;28;20187;-84
2022/03/31 00:14:06;;;;;;;18.87;13.57;;;;;;;;;;4953751;28;20231;-85
2022/03/31 00:17:10;;;;;;;20.00;14.70;;;;;;;;;;4953691;28;20194;-84
2022/03/31 00:20:14;;;;;;;20.70;14.33;;;;;;;;;;4964404;28;20198;-84
2022/03/31 00:23:19;;;;;;;18.80;13.37;;;;;;;;;;4953268;28;20218;-84
2022/03/31 00:26:23;;;;;;;19.70;14.20;;;;;;;;;;4964633;28;20178;-84
2022/03/31 00:29:27;;;;;;;17.93;13.47;;;;;;;;;;4964296;28;20183;-84
2022/03/31 00:32:33;;;;;;;19.77;14.37;;;;;;;;;;4953073;28;20198;-84
2022/03/31 00:35:37;;;;;;;19.63;14.77;;;;;;;;;;4953318;28;20207;-84
2022/03/31 00:39:28;;;;;;;20.10;13.97;;;;;;;;;;4953251;28;20191;-84
2022/03/31 00:42:06;;;;;;;20.00;14.70;;;;;;;;;;4964493;28;20642;-84
2022/03/31 00:45:19;;;;;;;20.70;13.97;;;;;;;;;;5063245;23;20568;-85
2022/03/31 00:48:22;;;;;;;21.27;15.33;;;;;;;;;;5022847;28;20189;-85
2022/03/31 00:51:29;;;;;;;19.50;15.13;;;;;;;;;;5034216;28;20169;-84
2022/03/31 00:54:34;;;;;;;21.70;14.80;;;;;;;;;;5002632;28;20229;-84
2022/03/31 00:57:38;;;;;;;22.00;15.37;;;;;;;;;;5025978;28;20177;-85
2022/03/31 01:00:43;;;;;;;19.40;13.93;;;;;;;;;;5003175;28;20181;-85
2022/03/31 01:03:47;;;;;;;23.83;15.63;;;;;;;;;;5014020;28;20213;-85
2022/03/31 01:06:52;;;;;;;21.77;14.87;;;;;;;;;;5014239;28;20632;-84
2022/03/31 01:09:57;;;;;;;21.93;15.50;;;;;;;;;;5014411;28;20177;-84
2022/03/31 01:13:07;;;;;;;23.10;16.20;;;;;;;;;;5014194;28;20177;-84
2022/03/31 01:16:11;;;;;;;24.97;17.20;;;;;;;;;;5014141;28;20659;-84
2022/03/31 01:19:16;;;;;;;24.13;17.20;;;;;;;;;;5013938;28;20177;-84
2022/03/31 01:22:28;;;;;;;27.37;18.03;;;;;;;;;;5024606;28;20182;-84
2022/03/31 01:25:33;;;;;;;25.63;18.57;;;;;;;;;;5013489;28;20185;-83
2022/03/31 01:28:40;;;;;;;24.27;16.77;;;;;;;;;;5013989;28;20637;-84
2022/03/31 01:31:44;;;;;;;24.70;17.20;;;;;;;;;;5002564;28;20182;-84
2022/03/31 01:34:48;;;;;;;25.93;17.47;;;;;;;;;;5013270;28;20225;-84
2022/03/31 01:37:53;;;;;;;26.90;18.27;;;;;;;;;;5001665;28;20189;-84
2022/03/31 01:40:57;;;;;;;27.13;18.87;;;;;;;;;;5013272;28;20203;-84
2022/03/31 01:44:03;;;;;;;28.13;19.40;;;;;;;;;;5012754;28;20221;-84
2022/03/31 01:47:07;;;;;;;30.97;20.10;;;;;;;;;;5013410;28;20181;-84
2022/03/31 01:50:12;;;;;;;31.70;21.60;;;;;;;;;;5013464;28;20181;-84
2022/03/31 01:53:18;;;;;;;32.23;20.23;;;;;;;;;;5012589;28;20178;-84
2022/03/31 01:56:22;;;;;;;29.73;20.10;;;;;;;;;;5013173;28;20301;-84
2022/03/31 01:59:37;;;;;;;25.83;18.50;;;;;;;;;;5012999;28;20186;-84
2022/03/31 02:02:43;;;;;;;29.70;18.53;;;;;;;;;;5015659;28;20189;-84
2022/03/31 02:05:46;;;;;;;31.43;19.90;;;;;;;;;;5016977;28;20177;-84
2022/03/31 02:08:51;;;;;;;26.60;19.23;;;;;;;;;;5005399;28;20173;-84
2022/03/31 02:11:57;;;;;;;30.70;20.67;;;;;;;;;;5016737;28;20181;-84
2022/03/31 02:15:02;;;;;;;33.83;22.40;;;;;;;;;;5016202;28;20229;-84
2022/03/31 02:18:06;;;;;;;32.33;21.00;;;;;;;;;;5016639;28;20177;-84
2022/03/31 02:21:11;;;;;;;33.43;21.30;;;;;;;;;;5016870;28;20182;-84
2022/03/31 02:24:16;;;;;;;29.77;20.60;;;;;;;;;;5016126;28;20220;-84
2022/03/31 02:27:20;;;;;;;32.10;21.43;;;;;;;;;;5016878;28;20186;-84
2022/03/31 02:30:24;;;;;;;32.53;22.80;;;;;;;;;;5016062;28;20667;-84
2022/03/31 02:33:28;;;;;;;34.03;21.53;;;;;;;;;;5016382;28;20208;-84
2022/03/31 02:36:32;;;;;;;30.73;21.43;;;;;;;;;;5027248;28;20521;-84
2022/03/31 02:39:36;;;;;;;36.60;21.80;;;;;;;;;;5016204;28;20181;-84
2022/03/31 02:42:41;;;;;;;32.97;21.73;;;;;;;;;;5016397;28;20181;-84
2022/03/31 02:45:45;;;;;;;32.87;20.90;;;;;;;;;;5016255;28;20624;-84
2022/03/31 02:48:49;;;;;;;31.27;21.13;;;;;;;;;;5015990;28;20182;-84
2022/03/31 02:51:52;;;;;;;31.43;20.57;;;;;;;;;;5004655;28;20178;-84
2022/03/31 02:58:19;;;;;;;29.37;19.93;;;;;;;;;;4995941;28;20190;-85
2022/03/31 03:01:23;;;;;;;32.00;20.53;;;;;;;;;;5004642;28;20186;-84
2022/03/31 03:04:27;;;;;;;32.17;20.80;;;;;;;;;;5016015;28;20221;-84
2022/03/31 03:07:31;;;;;;;32.73;21.13;;;;;;;;;;5011613;28;20205;-84
2022/03/31 03:10:35;;;;;;;33.07;21.77;;;;;;;;;;4996283;28;20202;-85
2022/03/31 03:13:40;;;;;;;32.80;21.80;;;;;;;;;;4995659;28;20213;-84
2022/03/31 03:16:44;;;;;;;40.90;23.60;;;;;;;;;;4984836;28;20210;-84
2022/03/31 03:19:49;;;;;;;36.37;23.03;;;;;;;;;;5008038;28;20193;-84
2022/03/31 03:22:54;;;;;;;35.17;22.93;;;;;;;;;;5005904;28;20182;-84
2022/03/31 03:25:57;;;;;;;36.87;22.63;;;;;;;;;;5014628;28;20178;-83
2022/03/31 03:29:02;;;;;;;36.00;23.13;;;;;;;;;;5009495;28;20186;-83
2022/03/31 03:32:06;;;;;;;32.33;21.00;;;;;;;;;;4984441;28;20629;-84
2022/03/31 03:35:13;;;;;;;32.83;21.53;;;;;;;;;;5008829;28;20221;-84
2022/03/31 03:38:17;;;;;;;37.97;22.87;;;;;;;;;;5015283;28;20193;-84
2022/03/31 03:41:21;;;;;;;36.47;22.33;;;;;;;;;;5004062;28;20185;-84
2022/03/31 03:44:25;;;;;;;34.27;21.73;;;;;;;;;;5003734;28;20225;-84
2022/03/31 03:47:30;;;;;;;35.90;22.50;;;;;;;;;;5015682;28;20178;-84
2022/03/31 03:50:34;;;;;;;35.03;21.80;;;;;;;;;;5003971;28;20178;-84
2022/03/31 03:53:38;;;;;;;38.07;22.40;;;;;;;;;;5014494;28;20213;-84
2022/03/31 03:56:43;;;;;;;35.70;22.43;;;;;;;;;;5003513;28;20660;-84
2022/03/31 03:59:47;;;;;;;33.47;20.53;;;;;;;;;;5014276;28;20197;-84
2022/03/31 04:02:51;;;;;;;40.47;22.90;;;;;;;;;;5014758;28;20181;-84
2022/03/31 04:05:55;;;;;;;38.50;23.37;;;;;;;;;;5003176;28;20178;-84
2022/03/31 04:08:59;;;;;;;37.77;23.47;;;;;;;;;;5013920;28;20201;-84
2022/03/31 04:12:04;;;;;;;35.33;22.57;;;;;;;;;;5002865;28;20200;-84
2022/03/31 04:15:09;;;;;;;39.30;24.10;;;;;;;;;;5013783;28;20225;-84
2022/03/31 04:18:13;;;;;;;37.77;22.90;;;;;;;;;;5014261;28;20181;-84
2022/03/31 04:21:18;;;;;;;41.23;23.83;;;;;;;;;;5003016;28;20178;-84
2022/03/31 04:24:22;;;;;;;41.20;23.90;;;;;;;;;;5013309;28;20212;-84
2022/03/31 04:27:26;;;;;;;41.37;23.03;;;;;;;;;;5002763;28;20516;-84
2022/03/31 04:30:30;;;;;;;41.97;24.30;;;;;;;;;;5003335;28;20616;-84
2022/03/31 04:33:34;;;;;;;44.47;24.23;;;;;;;;;;5002920;28;20220;-84
2022/03/31 04:36:38;;;;;;;47.70;25.93;;;;;;;;;;5013783;28;20213;-84
2022/03/31 04:39:42;;;;;;;48.17;26.57;;;;;;;;;;5013910;28;20201;-84
2022/03/31 04:42:46;;;;;;;47.27;25.83;;;;;;;;;;5002405;28;20182;-84
2022/03/31 04:45:51;;;;;;;44.03;24.77;;;;;;;;;;5002919;28;20178;-84
2022/03/31 04:48:55;;;;;;;48.10;26.23;;;;;;;;;;5002734;28;20648;-84
2022/03/31 04:52:00;;;;;;;44.73;25.50;;;;;;;;;;5014201;28;20181;-84
2022/03/31 04:55:04;;;;;;;50.37;26.33;;;;;;;;;;5013235;28;20213;-84
2022/03/31 04:58:08;;;;;;;53.23;27.07;;;;;;;;;;5002200;28;20174;-84
2022/03/31 05:01:12;;;;;;;48.67;25.53;;;;;;;;;;5013959;28;20651;-84
2022/03/31 05:04:17;;;;;;;44.57;23.93;;;;;;;;;;5004375;28;20225;-86
2022/03/31 05:07:20;;;;;;;43.97;24.00;;;;;;;;;;5015739;28;20190;-86
2022/03/31 05:10:24;;;;;;;41.10;23.33;;;;;;;;;;5016143;28;20190;-86
2022/03/31 05:13:29;;;;;;;46.23;24.70;;;;;;;;;;5016068;28;20224;-86
2022/03/31 05:16:33;;;;;;;43.63;23.67;;;;;;;;;;5015741;28;20205;-87
2022/03/31 05:19:38;;;;;;;45.47;24.50;;;;;;;;;;5004646;28;20522;-86
2022/03/31 05:22:42;;;;;;;38.57;23.67;;;;;;;;;;5015796;28;20182;-87
2022/03/31 05:25:47;;;;;;;45.93;24.87;;;;;;;;;;5015415;28;20177;-86
2022/03/31 05:28:52;;;;;;;46.63;24.43;;;;;;;;;;5005633;28;20182;-86
2022/03/31 05:31:57;;;;;;;41.87;24.03;;;;;;;;;;5006019;28;20182;-86
2022/03/31 05:35:02;;;;;;;39.73;22.73;;;;;;;;;;5016643;28;20217;-86
2022/03/31 05:38:07;;;;;;;38.60;23.20;;;;;;;;;;5020520;28;20645;-86
2022/03/31 05:41:10;;;;;;;37.10;22.27;;;;;;;;;;5020192;28;20181;-86
2022/03/31 05:44:15;;;;;;;39.73;22.03;;;;;;;;;;5019589;28;20567;-86
2022/03/31 05:47:19;;;;;;;41.33;22.73;;;;;;;;;;5020502;28;20169;-86
2022/03/31 05:50:23;;;;;;;42.70;23.50;;;;;;;;;;5020363;28;20173;-86
2022/03/31 05:53:27;;;;;;;42.77;23.50;;;;;;;;;;5009808;28;20217;-86
2022/03/31 05:56:32;;;;;;;41.60;23.17;;;;;;;;;;5022137;28;20205;-86
2022/03/31 05:59:36;;;;;;;41.83;23.50;;;;;;;;;;5009127;28;20193;-86
2022/03/31 06:02:41;;;;;;;44.73;22.87;;;;;;;;;;5020616;28;20193;-86
2022/03/31 06:05:45;;;;;;;42.07;23.30;;;;;;;;;;5019824;28;20675;-86
2022/03/31 06:08:50;;;;;;;42.93;22.97;;;;;;;;;;5021892;28;20178;-86
2022/03/31 06:11:54;;;;;;;39.47;23.40;;;;;;;;;;5020033;28;20174;-86
2022/03/31 06:14:58;;;;;;;41.60;22.67;;;;;;;;;;5008535;28;20561;-86
2022/03/31 06:18:03;;;;;;;37.60;21.73;;;;;;;;;;5008811;28;20174;-86
2022/03/31 06:21:08;;;;;;;40.97;21.93;;;;;;;;;;5020141;28;20186;-86
2022/03/31 06:24:12;;;;;;;31.87;19.20;;;;;;;;;;5007990;28;20239;-86
2022/03/31 06:27:16;;;;;;;36.10;20.93;;;;;;;;;;5019423;28;20174;-86
2022/03/31 06:30:20;;;;;;;34.80;21.80;;;;;;;;;;5007539;28;20186;-87
2022/03/31 06:33:25;;;;;;;38.17;21.53;;;;;;;;;;5019350;28;20213;-86
2022/03/31 06:36:30;;;;;;;39.47;21.50;;;;;;;;;;5018971;28;20205;-86
2022/03/31 06:39:35;;;;;;;34.43;20.57;;;;;;;;;;5008214;28;20185;-86
2022/03/31 06:42:40;;;;;;;36.37;21.57;;;;;;;;;;5008039;28;20185;-86
2022/03/31 06:45:43;;;;;;;39.00;22.30;;;;;;;;;;5011353;28;20181;-84
2022/03/31 06:48:48;;;;;;;36.93;21.47;;;;;;;;;;5004320;28;20182;-84
2022/03/31 06:51:52;;;;;;;35.20;21.33;;;;;;;;;;5028459;28;20521;-84
2022/03/31 06:54:56;;;;;;;37.53;22.00;;;;;;;;;;5005292;28;20221;-84
2022/03/31 06:58:00;;;;;;;37.17;20.87;;;;;;;;;;5027382;28;20173;-84
2022/03/31 07:01:05;;;;;;;39.47;22.37;;;;;;;;;;5004497;28;20185;-84
2022/03/31 07:04:10;;;;;;;42.17;23.83;;;;;;;;;;5004418;28;20213;-84
2022/03/31 07:07:15;;;;;;;48.40;24.43;;;;;;;;;;5015797;28;20181;-84
2022/03/31 07:10:21;;;;;;;45.13;24.67;;;;;;;;;;5004811;28;20633;-84
2022/03/31 07:13:25;;;;;;;40.60;22.73;;;;;;;;;;5016084;28;20217;-83
2022/03/31 07:16:30;;;;;;;42.07;23.37;;;;;;;;;;5004386;28;20205;-84
2022/03/31 07:19:34;;;;;;;44.00;24.47;;;;;;;;;;5004208;28;20200;-84
2022/03/31 07:22:47;;;;;;;41.60;25.00;;;;;;;;;;5004477;28;20198;-84
2022/03/31 07:25:50;;;;;;;37.33;22.87;;;;;;;;;;5015839;28;20186;-84
2022/03/31 07:28:55;;;;;;;39.23;24.87;;;;;;;;;;5004269;28;20205;-86
2022/03/31 07:31:58;;;;;;;40.97;23.50;;;;;;;;;;5015379;28;20178;-84
2022/03/31 07:35:03;;;;;;;36.60;22.10;;;;;;;;;;5004138;28;20213;-84
2022/03/31 07:38:10;;;;;;;42.30;23.90;;;;;;;;;;5004218;28;20178;-84
2022/03/31 07:41:15;;;;;;;36.67;20.97;;;;;;;;;;5015051;28;20177;-84
2022/03/31 07:44:19;;;;;;;37.83;21.90;;;;;;;;;;5003812;28;20221;-84
2022/03/31 07:47:22;;;;;;;36.60;21.10;;;;;;;;;;5014898;28;20181;-84
2022/03/31 07:50:27;;;;;;;34.67;22.33;;;;;;;;;;5003550;28;20193;-84
2022/03/31 07:53:33;;;;;;;37.03;21.77;;;;;;;;;;5003648;28;20214;-84
2022/03/31 07:56:36;;;;;;;35.57;22.10;;;;;;;;;;5004008;28;20205;-84
2022/03/31 07:59:41;;;;;;;31.60;19.87;;;;;;;;;;5013909;28;20529;-85
2022/03/31 08:02:47;;;;;;;35.27;21.60;;;;;;;;;;5003549;28;20684;-84
2022/03/31 08:05:52;;;;;;;36.10;20.43;;;;;;;;;;5002856;28;20201;-84
2022/03/31 08:08:56;;;;;;;38.57;21.37;;;;;;;;;;5002592;28;20185;-84
2022/03/31 08:12:00;;;;;;;32.57;20.83;;;;;;;;;;5017240;28;20632;-86
2022/03/31 08:15:05;;;;;;;40.97;22.23;;;;;;;;;;5005351;28;20216;-86
2022/03/31 08:18:09;;;;;;;46.10;23.23;;;;;;;;;;5017786;28;20209;-86
2022/03/31 08:21:14;;;;;;;41.37;23.00;;;;;;;;;;5006349;28;20181;-86
2022/03/31 08:24:18;;;;;;;43.17;23.60;;;;;;;;;;5016891;28;20213;-86
2022/03/31 08:27:22;;;;;;;40.47;22.03;;;;;;;;;;5028724;28;20178;-86
2022/03/31 08:30:28;;;;;;;44.30;24.03;;;;;;;;;;5018523;28;20178;-86
2022/03/31 08:33:31;;;;;;;42.50;23.23;;;;;;;;;;5017780;28;20217;-86
2022/03/31 08:36:36;;;;;;;46.10;24.33;;;;;;;;;;5006070;28;20274;-86
2022/03/31 08:39:41;;;;;;;40.97;23.40;;;;;;;;;;5017562;28;20625;-86
2022/03/31 08:42:45;;;;;;;47.17;25.40;;;;;;;;;;5017589;28;20174;-86
2022/03/31 08:45:55;;;;;;;55.13;26.77;;;;;;;;;;5029130;28;20177;-86
2022/03/31 08:48:59;;;;;;;50.47;26.13;;;;;;;;;;5006371;28;20624;-86
2022/03/31 08:52:04;;;;;;;54.13;26.87;;;;;;;;;;5005611;28;20177;-86
2022/03/31 08:55:09;;;;;;;54.03;26.97;;;;;;;;;;5017614;28;20217;-86
2022/03/31 08:58:14;;;;;;;59.40;28.73;;;;;;;;;;5014719;28;20218;-84
2022/03/31 09:01:18;;;;;;;53.73;26.57;;;;;;;;;;5003214;28;20182;-84
2022/03/31 09:04:24;;;;;;;57.10;28.37;;;;;;;;;;5002718;28;20553;-84
2022/03/31 09:07:28;;;;;;;55.70;27.80;;;;;;;;;;5013800;28;20197;-84
2022/03/31 09:10:47;;;;;;;55.00;26.47;;;;;;;;;;5013850;28;20197;-84
2022/03/31 09:13:54;;;;;;;54.43;27.67;;;;;;;;;;5013448;28;20692;-84
2022/03/31 09:17:13;;;;;;;48.80;26.23;;;;;;;;;;5013463;28;20213;-84
2022/03/31 09:20:17;;;;;;;46.80;25.17;;;;;;;;;;5013814;28;20181;-84
2022/03/31 09:23:23;;;;;;;50.10;26.97;;;;;;;;;;5012782;28;20212;-84
2022/03/31 09:26:31;;;;;;;44.73;25.83;;;;;;;;;;5013596;28;20193;-84
2022/03/31 09:29:35;;;;;;;48.30;26.47;;;;;;;;;;5013097;28;20181;-84
2022/03/31 09:32:48;;;;;;;48.73;24.23;;;;;;;;;;5002192;28;20204;-84
2022/03/31 09:36:07;;;;;;;40.90;23.23;;;;;;;;;;5013753;28;20185;-84
2022/03/31 09:39:13;;;;;;;40.17;21.73;;;;;;;;;;5001972;28;20182;-84
2022/03/31 09:42:17;;;;;;;41.33;22.63;;;;;;;;;;5013388;28;20182;-84
2022/03/31 09:45:22;;;;;;;38.37;21.30;;;;;;;;;;4990295;28;20229;-84
2022/03/31 09:48:26;;;;;;;38.30;21.20;;;;;;;;;;5002368;28;20174;-84
2022/03/31 09:51:31;;;;;;;36.67;21.63;;;;;;;;;;5001716;28;20177;-84
2022/03/31 09:54:35;;;;;;;37.93;21.70;;;;;;;;;;5001743;28;20684;-84
2022/03/31 09:57:40;;;;;;;39.93;21.20;;;;;;;;;;5012845;28;20676;-84
2022/03/31 10:00:45;;;;;;;36.03;20.33;;;;;;;;;;5013535;28;20542;-84
2022/03/31 10:03:54;;;;;;;35.00;20.47;;;;;;;;;;5013263;28;20221;-84
2022/03/31 10:06:59;;;;;;;33.77;19.80;;;;;;;;;;5013088;28;20178;-84
2022/03/31 10:10:04;;;;;;;35.13;20.17;;;;;;;;;;5012760;28;20205;-84
2022/03/31 10:13:12;;;;;;;44.27;25.80;;;;;;;;;;5024130;28;20181;-85
2022/03/31 10:16:24;;;;;;;37.53;21.63;;;;;;;;;;5012770;28;20178;-84
2022/03/31 10:19:35;;;;;;;34.47;19.77;;;;;;;;;;5012834;28;20174;-86
2022/03/31 10:26:02;;;;;;;34.80;19.80;;;;;;;;;;5016408;28;20190;-87
2022/03/31 10:29:15;;;;;;;31.73;18.13;;;;;;;;;;5005025;28;20178;-86
2022/03/31 10:32:21;;;;;;;28.47;17.60;;;;;;;;;;5016385;28;20525;-86
2022/03/31 10:35:30;;;;;;;28.33;17.23;;;;;;;;;;5016128;28;20185;-87
2022/03/31 10:38:34;;;;;;;28.97;17.03;;;;;;;;;;5015966;28;20205;-86
2022/03/31 10:41:39;;;;;;;29.00;17.90;;;;;;;;;;5004680;28;20186;-87
2022/03/31 10:44:43;;;;;;;27.17;16.80;;;;;;;;;;5004673;28;20225;-87
2022/03/31 10:47:50;;;;;;;25.63;16.27;;;;;;;;;;5015607;28;20189;-86
2022/03/31 10:51:00;;;;;;;25.20;15.67;;;;;;;;;;5016248;28;20181;-86
2022/03/31 10:54:06;;;;;;;37.10;21.23;;;;;;;;;;5015420;28;20221;-86
2022/03/31 10:57:13;;;;;;;43.47;26.33;;;;;;;;;;5016156;28;20213;-86
2022/03/31 11:00:17;;;;;;;37.43;24.77;;;;;;;;;;5015469;28;20185;-87
2022/03/31 11:03:22;;;;;;;42.67;28.27;;;;;;;;;;5004498;28;20217;-86
2022/03/31 11:06:26;;;;;;;35.97;24.33;;;;;;;;;;5004088;28;20633;-86
2022/03/31 11:09:31;;;;;;;40.60;26.97;;;;;;;;;;5015832;28;20178;-86
2022/03/31 11:12:36;;;;;;;37.47;25.87;;;;;;;;;;5004428;28;20633;-87
2022/03/31 11:15:40;;;;;;;37.87;25.83;;;;;;;;;;5005642;28;20177;-86
2022/03/31 11:18:55;;;;;;;41.30;26.73;;;;;;;;;;5015421;28;20209;-86
2022/03/31 11:21:59;;;;;;;41.70;27.30;;;;;;;;;;5015010;28;20189;-86
2022/03/31 11:25:09;;;;;;;39.90;27.73;;;;;;;;;;5003645;28;20688;-86
2022/03/31 11:28:13;;;;;;;40.80;27.07;;;;;;;;;;5015231;28;20197;-87
2022/03/31 11:31:20;;;;;;;41.97;28.03;;;;;;;;;;5015391;28;20181;-86
2022/03/31 11:34:26;;;;;;;39.53;27.77;;;;;;;;;;5004191;28;20221;-86
2022/03/31 11:37:30;;;;;;;42.23;27.07;;;;;;;;;;5015198;28;20206;-86
2022/03/31 11:40:40;;;;;;;43.10;29.80;;;;;;;;;;5026042;28;20205;-86
2022/03/31 11:43:44;;;;;;;47.90;30.47;;;;;;;;;;5014568;28;20225;-86
2022/03/31 11:46:49;;;;;;;43.23;29.70;;;;;;;;;;5003437;28;20182;-86
2022/03/31 11:49:58;;;;;;;43.97;29.50;;;;;;;;;;5015234;28;20177;-86
2022/03/31 11:53:03;;;;;;;46.40;31.07;;;;;;;;;;5003344;28;20637;-86
2022/03/31 11:56:21;;;;;;;52.57;34.87;;;;;;;;;;5003670;28;20662;-86
2022/03/31 11:59:25;;;;;;;48.93;32.27;;;;;;;;;;5003333;28;20193;-86
2022/03/31 12:02:29;;;;;;;55.47;33.27;;;;;;;;;;5003444;28;20177;-86
2022/03/31 12:05:33;;;;;;;49.13;33.27;;;;;;;;;;5015051;28;20186;-86
2022/03/31 12:08:38;;;;;;;42.93;32.10;;;;;;;;;;5014559;28;20530;-86
2022/03/31 12:11:43;;;;;;;41.23;29.87;;;;;;;;;;5026881;28;20181;-85
2022/03/31 12:14:56;;;;;;;38.43;29.10;;;;;;;;;;5014564;28;20228;-84
2022/03/31 12:18:03;;;;;;;37.97;27.53;;;;;;;;;;5003775;28;20530;-84
2022/03/31 12:21:08;;;;;;;40.07;29.33;;;;;;;;;;5003199;28;20189;-84
2022/03/31 12:24:13;;;;;;;38.37;28.80;;;;;;;;;;5003393;28;20217;-84
2022/03/31 12:27:18;;;;;;;36.83;27.90;;;;;;;;;;5014321;28;20182;-84
2022/03/31 12:30:23;;;;;;;37.80;28.93;;;;;;;;;;5014811;28;20177;-84
2022/03/31 12:33:36;;;;;;;37.77;29.53;;;;;;;;;;5003914;28;20213;-84
2022/03/31 12:36:42;;;;;;;36.13;27.13;;;;;;;;;;5014739;28;20213;-84
2022/03/31 12:39:49;;;;;;;39.70;28.60;;;;;;;;;;5026188;28;20173;-84
2022/03/31 12:42:57;;;;;;;38.07;31.17;;;;;;;;;;5014697;28;20174;-84
2022/03/31 12:46:12;;;;;;;42.80;30.33;;;;;;;;;;5014711;28;20186;-84
2022/03/31 12:49:18;;;;;;;44.93;33.53;;;;;;;;;;5003276;28;20193;-84
2022/03/31 12:52:22;;;;;;;66.40;51.10;;;;;;;;;;5015482;28;20177;-86
2022/03/31 12:55:28;;;;;;;49.30;38.03;;;;;;;;;;5003851;28;20182;-85
2022/03/31 12:58:37;;;;;;;41.83;32.43;;;;;;;;;;5003695;28;20688;-84
2022/03/31 13:01:41;;;;;;;39.33;30.10;;;;;;;;;;5014728;28;20177;-84
2022/03/31 13:04:46;;;;;;;37.83;30.40;;;;;;;;;;5014452;28;20216;-85
2022/03/31 13:07:52;;;;;;;66.93;46.43;;;;;;;;;;5003509;28;20173;-84
2022/03/31 13:10:56;;;;;;;56.57;38.60;;;;;;;;;;5003544;28;20177;-85
2022/03/31 13:14:01;;;;;;;47.57;36.07;;;;;;;;;;5002701;28;20213;-84
2022/03/31 13:17:07;;;;;;;44.03;33.93;;;;;;;;;;5014718;28;20177;-85
2022/03/31 13:20:15;;;;;;;37.40;30.07;;;;;;;;;;5013969;28;20190;-84
2022/03/31 13:23:20;;;;;;;33.90;27.90;;;;;;;;;;5002174;28;20221;-85
2022/03/31 13:26:24;;;;;;;38.83;28.60;;;;;;;;;;5013903;28;20182;-85
2022/03/31 13:29:28;;;;;;;38.67;29.90;;;;;;;;;;5013622;28;20173;-85
2022/03/31 13:32:33;;;;;;;39.23;29.33;;;;;;;;;;5014092;28;20185;-85
2022/03/31 13:35:37;;;;;;;41.43;31.30;;;;;;;;;;5002744;28;20177;-84
2022/03/31 13:38:41;;;;;;;37.30;28.67;;;;;;;;;;5013423;28;20205;-85
2022/03/31 13:41:47;;;;;;;36.70;28.60;;;;;;;;;;5014954;28;20181;-84
2022/03/31 13:44:53;;;;;;;37.53;28.60;;;;;;;;;;5013884;28;20217;-85
2022/03/31 13:47:57;;;;;;;35.57;28.00;;;;;;;;;;5013932;28;20173;-86
2022/03/31 13:51:01;;;;;;;32.50;25.27;;;;;;;;;;5003497;28;20201;-87
2022/03/31 13:54:07;;;;;;;47.03;32.13;;;;;;;;;;5014392;28;20718;-84
2022/03/31 14:03:56;;;;;;;42.67;29.90;;;;;;;;;;5017804;28;20224;-85
2022/03/31 14:07:03;;;;;;;26.77;20.57;;;;;;;;;;5006762;28;20185;-86
2022/03/31 14:10:07;;;;;;;30.60;23.60;;;;;;;;;;5006549;28;20188;-86
2022/03/31 14:13:11;;;;;;;27.93;21.83;;;;;;;;;;5029256;28;20200;-85
2022/03/31 14:16:15;;;;;;;34.40;27.23;;;;;;;;;;5017658;28;20564;-84
2022/03/31 14:19:23;;;;;;;29.83;23.90;;;;;;;;;;5018551;28;20568;-86
2022/03/31 14:22:27;;;;;;;28.97;23.83;;;;;;;;;;5006852;28;20385;-85
2022/03/31 14:25:32;;;;;;;27.70;23.63;;;;;;;;;;5006457;28;20192;-85
2022/03/31 14:28:37;;;;;;;26.90;22.30;;;;;;;;;;5016957;28;20188;-85
2022/03/31 14:31:45;;;;;;;26.63;21.50;;;;;;;;;;5016689;28;20187;-85
2022/03/31 14:34:50;;;;;;;21.47;17.27;;;;;;;;;;5005365;28;20220;-85
2022/03/31 14:37:54;;;;;;;24.67;19.27;;;;;;;;;;5005461;28;20687;-85
2022/03/31 14:41:09;;;;;;;26.70;20.83;;;;;;;;;;5016373;28;20197;-85
2022/03/31 14:44:16;;;;;;;26.87;21.57;;;;;;;;;;5016298;28;20236;-85
2022/03/31 14:47:21;;;;;;;26.53;22.83;;;;;;;;;;5005216;28;20212;-85
2022/03/31 14:50:26;;;;;;;26.63;22.10;;;;;;;;;;5005265;28;20193;-85
2022/03/31 14:53:32;;;;;;;27.70;22.70;;;;;;;;;;5016419;28;20224;-85
2022/03/31 14:56:37;;;;;;;30.40;23.63;;;;;;;;;;5016284;28;20188;-85
2022/03/31 14:59:41;;;;;;;26.27;21.27;;;;;;;;;;5004745;28;20216;-85
2022/03/31 15:02:45;;;;;;;28.43;23.47;;;;;;;;;;5004904;28;20205;-85
2022/03/31 15:05:50;;;;;;;32.40;23.60;;;;;;;;;;5016274;28;20556;-85
2022/03/31 15:08:55;;;;;;;28.37;22.90;;;;;;;;;;5004135;28;20656;-85
2022/03/31 15:15:23;;;;;;;26.20;20.90;;;;;;;;;;5015527;28;20244;-85
2022/03/31 15:18:28;;;;;;;27.93;21.57;;;;;;;;;;5004671;28;20675;-84
2022/03/31 15:21:32;;;;;;;24.60;20.27;;;;;;;;;;5015733;28;20253;-86
2022/03/31 15:24:37;;;;;;;24.77;19.90;;;;;;;;;;5015330;28;20224;-85
2022/03/31 15:27:41;;;;;;;26.03;19.73;;;;;;;;;;5004547;28;20683;-85
2022/03/31 15:30:45;;;;;;;25.90;20.53;;;;;;;;;;5015786;28;20184;-84
2022/03/31 15:33:50;;;;;;;28.07;20.17;;;;;;;;;;5015163;28;20247;-85
2022/03/31 15:36:55;;;;;;;26.90;20.70;;;;;;;;;;5003878;28;20545;-85
2022/03/31 15:39:59;;;;;;;30.00;19.60;;;;;;;;;;5004084;28;20251;-84
2022/03/31 15:43:05;;;;;;;23.70;17.80;;;;;;;;;;5014987;28;20178;-84
2022/03/31 15:46:10;;;;;;;27.33;18.00;;;;;;;;;;5015354;28;20209;-84
2022/03/31 15:49:13;;;;;;;27.83;18.30;;;;;;;;;;5014993;28;20178;-84
2022/03/31 15:52:18;;;;;;;25.10;18.87;;;;;;;;;;5015839;28;20185;-84
2022/03/31 15:55:22;;;;;;;25.37;18.00;;;;;;;;;;5015021;28;20217;-84
2022/03/31 15:58:26;;;;;;;27.47;18.93;;;;;;;;;;5014573;28;20190;-84
2022/03/31 16:01:30;;;;;;;28.07;19.23;;;;;;;;;;5003407;28;20181;-85
2022/03/31 16:04:35;;;;;;;41.97;27.63;;;;;;;;;;5014770;28;20212;-84
2022/03/31 16:07:39;;;;;;;26.23;18.17;;;;;;;;;;5002981;28;20185;-84
2022/03/31 16:10:43;;;;;;;28.30;20.20;;;;;;;;;;5003470;28;20173;-86
2022/03/31 16:13:49;;;;;;;27.40;18.97;;;;;;;;;;5003069;28;20593;-84
2022/03/31 16:16:53;;;;;;;27.50;17.93;;;;;;;;;;4992676;28;20182;-84
2022/03/31 16:19:59;;;;;;;27.47;18.67;;;;;;;;;;5002323;28;20209;-84
2022/03/31 16:26:26;;;;;;;24.77;18.33;;;;;;;;;;5025901;28;20178;-84
2022/03/31 16:29:30;;;;;;;26.40;17.43;;;;;;;;;;5014216;28;20178;-84
2022/03/31 16:32:34;;;;;;;22.03;16.57;;;;;;;;;;5013836;28;20181;-84
2022/03/31 16:35:39;;;;;;;21.97;16.60;;;;;;;;;;5013951;28;20182;-86
2022/03/31 16:38:43;;;;;;;20.73;15.37;;;;;;;;;;5013535;28;20178;-86
2022/03/31 16:41:48;;;;;;;23.97;16.63;;;;;;;;;;5002932;28;20612;-85
2022/03/31 16:44:52;;;;;;;26.37;16.50;;;;;;;;;;5013339;28;20225;-86
2022/03/31 16:47:57;;;;;;;22.93;16.17;;;;;;;;;;5002949;28;20534;-86
2022/03/31 16:51:01;;;;;;;21.73;15.80;;;;;;;;;;5003100;28;20174;-85
2022/03/31 16:54:06;;;;;;;21.43;16.27;;;;;;;;;;5002119;28;20680;-86
2022/03/31 16:57:10;;;;;;;23.17;16.17;;;;;;;;;;5013984;28;20629;-86
2022/03/31 17:00:15;;;;;;;21.00;15.40;;;;;;;;;;5002243;28;20209;-86
2022/03/31 17:03:19;;;;;;;21.67;15.00;;;;;;;;;;5002442;28;20351;-86
2022/03/31 17:06:24;;;;;;;23.63;15.60;;;;;;;;;;5002419;28;20540;-86
2022/03/31 17:09:30;;;;;;;20.53;14.63;;;;;;;;;;5002809;28;20178;-85
2022/03/31 17:12:34;;;;;;;20.73;14.67;;;;;;;;;;5024655;28;20185;-85
2022/03/31 17:15:38;;;;;;;19.67;14.40;;;;;;;;;;5002188;28;20177;-85
2022/03/31 17:18:42;;;;;;;17.93;14.13;;;;;;;;;;5013473;28;20185;-85
2022/03/31 17:21:47;;;;;;;18.47;13.60;;;;;;;;;;5013521;28;20178;-85
2022/03/31 17:24:50;;;;;;;18.50;14.40;;;;;;;;;;5012970;28;20212;-85
2022/03/31 17:27:56;;;;;;;19.87;14.00;;;;;;;;;;5013617;28;20173;-85
2022/03/31 17:31:01;;;;;;;19.00;14.40;;;;;;;;;;5003118;28;20174;-85
2022/03/31 17:34:05;;;;;;;19.77;14.07;;;;;;;;;;5020027;28;20220;-85
2022/03/31 17:37:10;;;;;;;20.07;14.70;;;;;;;;;;5020011;28;20197;-85
2022/03/31 17:40:15;;;;;;;22.40;15.13;;;;;;;;;;5019662;28;20205;-85
2022/03/31 17:43:22;;;;;;;19.77;14.40;;;;;;;;;;5008564;28;20174;-85
2022/03/31 17:46:26;;;;;;;20.67;14.50;;;;;;;;;;5019832;28;20514;-85
2022/03/31 17:49:35;;;;;;;21.13;15.37;;;;;;;;;;5008610;28;20185;-85
2022/03/31 17:52:42;;;;;;;23.57;14.73;;;;;;;;;;5008293;28;20174;-85
2022/03/31 17:55:47;;;;;;;30.10;17.33;;;;;;;;;;5008605;28;20182;-85
2022/03/31 17:58:52;;;;;;;25.97;16.17;;;;;;;;;;5019372;28;20182;-85
2022/03/31 18:01:57;;;;;;;22.97;15.83;;;;;;;;;;5020016;28;20185;-85
2022/03/31 18:05:02;;;;;;;22.63;15.27;;;;;;;;;;5008378;28;20688;-85
2022/03/31 18:08:07;;;;;;;22.23;15.30;;;;;;;;;;5019896;28;20186;-86
2022/03/31 18:11:11;;;;;;;25.60;16.10;;;;;;;;;;5031611;28;20182;-86
2022/03/31 18:14:15;;;;;;;26.03;16.70;;;;;;;;;;5008329;28;20224;-85
2022/03/31 18:17:20;;;;;;;23.93;16.40;;;;;;;;;;5008617;28;20193;-85